createdAt,value
2023-11-18T00:02:04.040Z,3.4799999999999995
2023-11-18T00:05:05.648Z,2.6
2023-11-18T00:08:07.187Z,2.9
2023-11-18T00:11:02.715Z,4.2
2023-11-18T00:14:00.254Z,3.4
2023-11-18T00:16:55.822Z,4.42
2023-11-18T00:19:51.367Z,3.56
2023-11-18T00:25:53.548Z,3.3400000000000007
2023-11-18T00:28:51.937Z,2.74
2023-11-18T00:31:48.663Z,2.7600000000000007
2023-11-18T00:34:45.113Z,3.8600000000000003
2023-11-18T00:37:43.699Z,3.1400000000000006
2023-11-18T00:40:40.220Z,3.4199999999999995
2023-11-18T00:43:35.766Z,4.16
2023-11-18T00:49:37.957Z,2
2023-11-18T00:52:34.444Z,3.4200000000000004
2023-11-18T00:55:29.958Z,2.98
2023-11-18T00:58:25.579Z,2.7800000000000002
2023-11-18T01:01:22.112Z,4.08
2023-11-18T01:04:20.633Z,2.88
2023-11-18T01:07:17.202Z,2.7800000000000002
2023-11-18T01:10:15.024Z,4.4
2023-11-18T01:13:11.350Z,3.3
2023-11-18T01:16:07.895Z,2.26
2023-11-18T01:19:03.485Z,3.7399999999999998
2023-11-18T01:21:59.978Z,3.12
2023-11-18T01:28:01.184Z,2.4
2023-11-18T01:34:05.236Z,2.34
2023-11-18T01:37:00.734Z,2.3600000000000003
2023-11-18T01:39:58.350Z,3.46
2023-11-18T01:42:55.878Z,2.6599999999999997
2023-11-18T01:45:54.522Z,2.7
2023-11-18T01:48:49.965Z,2.94
2023-11-18T01:51:47.622Z,2.54
2023-11-18T01:54:49.082Z,3.0199999999999996
2023-11-18T01:57:46.624Z,3.06
2023-11-18T02:00:45.216Z,2.56
2023-11-18T02:03:42.827Z,3.2
2023-11-18T02:06:39.306Z,3.2
2023-11-18T02:09:36.854Z,2.94
2023-11-18T02:12:43.425Z,3.2800000000000002
2023-11-18T02:15:42.938Z,2.12
2023-11-18T02:18:43.552Z,1.98
2023-11-18T02:21:42.070Z,2.6799999999999997
2023-11-18T02:24:41.632Z,3.0200000000000005
2023-11-18T02:27:38.156Z,2.74
2023-11-18T02:30:35.708Z,2.38
2023-11-18T02:36:47.776Z,2.1199999999999997
2023-11-18T02:39:54.406Z,2.92
2023-11-18T02:42:53.892Z,2.32
2023-11-18T02:45:52.483Z,3.22
2023-11-18T02:48:47.982Z,2.5599999999999996
2023-11-18T02:51:46.608Z,3.04
2023-11-18T02:54:43.126Z,2.6800000000000006
2023-11-18T02:57:41.656Z,2.1199999999999997
2023-11-18T03:00:41.243Z,2.6
2023-11-18T03:03:37.822Z,2.2800000000000002
2023-11-18T03:06:33.307Z,3.1799999999999997
2023-11-18T03:09:29.869Z,2.9
2023-11-18T03:12:29.028Z,3.46
2023-11-18T03:15:27.055Z,4.0600000000000005
2023-11-18T03:18:22.541Z,4.54
2023-11-18T03:21:20.095Z,4.3
2023-11-18T03:24:17.696Z,5.119999999999999
2023-11-18T03:27:13.236Z,6.840000000000001
2023-11-18T03:30:09.752Z,2.46
2023-11-18T03:33:06.401Z,3.2
2023-11-18T03:36:03.918Z,3.7
2023-11-18T03:39:02.475Z,4.26
2023-11-18T03:41:57.972Z,2.8400000000000003
2023-11-18T03:48:00.245Z,2.8200000000000003
2023-11-18T03:50:55.653Z,2.42
2023-11-18T03:53:51.223Z,2.7800000000000002
2023-11-18T03:56:50.777Z,2.1
2023-11-18T04:02:52.937Z,2.1
2023-11-18T04:05:48.488Z,3.1800000000000006
2023-11-18T04:08:44.960Z,3.88
2023-11-18T04:11:45.555Z,2.82
2023-11-18T04:14:41.134Z,2.54
2023-11-18T04:17:38.751Z,3.3400000000000007
2023-11-18T04:20:38.240Z,3.6199999999999997
2023-11-18T04:23:35.761Z,2.7
2023-11-18T04:26:34.390Z,3.62
2023-11-18T04:29:30.905Z,3.38
2023-11-18T04:32:27.446Z,2.94
2023-11-18T04:35:24.987Z,2.38
2023-11-18T04:38:22.560Z,2.2
2023-11-18T04:41:18.122Z,2.88
2023-11-18T04:44:16.768Z,2.7600000000000002
2023-11-18T04:47:12.324Z,2.66
2023-11-18T04:50:10.854Z,2.5
2023-11-18T04:53:09.508Z,1.86
2023-11-18T04:56:05.960Z,1.6600000000000001
2023-11-18T04:59:01.457Z,2.6
2023-11-18T05:01:58.227Z,2.3600000000000003
2023-11-18T05:04:53.616Z,2.2199999999999998
2023-11-18T05:07:50.263Z,2.8
2023-11-18T05:10:47.684Z,3.04
2023-11-18T05:13:43.289Z,2.88
2023-11-18T05:16:39.881Z,2.5
2023-11-18T05:19:35.394Z,3.3599999999999994
2023-11-18T05:22:32.948Z,3.04
2023-11-18T05:25:33.514Z,1.7600000000000002
2023-11-18T05:28:31.112Z,2.72
2023-11-18T05:31:32.589Z,1.92
2023-11-18T05:34:28.158Z,2.06
2023-11-18T05:37:29.677Z,2.8
2023-11-18T05:40:32.192Z,1.9
2023-11-18T05:43:31.775Z,1.9600000000000002
2023-11-18T05:46:47.367Z,2.1
2023-11-18T05:49:45.877Z,2.04
2023-11-18T05:52:41.437Z,2.06
2023-11-18T05:55:39.017Z,1.6600000000000001
2023-11-18T05:58:35.625Z,1.98
2023-11-18T06:01:33.237Z,2.34
2023-11-18T06:04:29.670Z,2.02
2023-11-18T06:07:25.224Z,2.6799999999999997
2023-11-18T06:10:21.812Z,2.6800000000000006
2023-11-18T06:13:17.311Z,3.3200000000000003
2023-11-18T06:16:15.015Z,4.119999999999999
2023-11-18T06:19:11.457Z,2.66
2023-11-18T06:22:09.026Z,2.34
2023-11-18T06:25:08.575Z,2.54
2023-11-18T06:28:09.189Z,2.3
2023-11-18T06:31:05.695Z,2.46
2023-11-18T06:34:03.220Z,2.1399999999999997
2023-11-18T06:36:59.749Z,2.3
2023-11-18T06:40:04.305Z,1.98
2023-11-18T06:43:02.841Z,2.24
2023-11-18T06:45:59.402Z,2.9
2023-11-18T06:48:55.985Z,2.7800000000000002
2023-11-18T06:51:51.542Z,2.7800000000000002
2023-11-18T06:54:48.102Z,2.02
2023-11-18T06:57:45.690Z,2.92
2023-11-18T07:00:43.221Z,2.5799999999999996
2023-11-18T07:03:38.755Z,2.0799999999999996
2023-11-18T07:09:48.334Z,2.8600000000000003
2023-11-18T07:12:46.406Z,2.0799999999999996
2023-11-18T07:15:43.966Z,2.2600000000000002
2023-11-18T07:18:43.512Z,2.5
2023-11-18T07:21:42.041Z,1.86
2023-11-18T07:24:38.621Z,1.78
2023-11-18T07:27:36.241Z,2.28
2023-11-18T07:30:31.739Z,2.38
2023-11-18T07:33:28.455Z,1.6600000000000001
2023-11-18T07:36:25.036Z,1.56
2023-11-18T07:42:26.970Z,1.6600000000000001
2023-11-18T07:45:24.502Z,1.8800000000000001
2023-11-18T07:48:21.073Z,2.1399999999999997
2023-11-18T07:51:16.675Z,1.36
2023-11-18T07:54:14.175Z,1.48
2023-11-18T07:57:11.896Z,1.2399999999999998
2023-11-18T08:00:10.412Z,1.5799999999999998
2023-11-18T08:03:07.967Z,1.6600000000000001
2023-11-18T08:06:07.399Z,2.56
2023-11-18T08:09:04.987Z,2.5799999999999996
2023-11-18T08:12:01.482Z,1.86
2023-11-18T08:18:04.707Z,2.3
2023-11-18T08:21:02.160Z,1.7
2023-11-18T08:24:00.752Z,1.36
2023-11-18T08:26:57.270Z,1
2023-11-18T08:29:54.852Z,1.42
2023-11-18T08:32:50.453Z,2.72
2023-11-18T08:35:46.941Z,2.7800000000000002
2023-11-18T08:38:45.630Z,3.06
2023-11-18T08:41:44.045Z,1.44
2023-11-18T08:44:41.699Z,2.2
2023-11-18T08:47:43.153Z,2.9
2023-11-18T08:50:45.730Z,3.6
2023-11-18T08:53:43.286Z,1.06
2023-11-18T08:56:43.264Z,2.44
2023-11-18T08:59:42.428Z,1.54
2023-11-18T09:02:52.277Z,2
2023-11-18T09:05:57.440Z,2
2023-11-18T09:08:58.036Z,1.16
2023-11-18T09:11:57.566Z,1.5399999999999998
2023-11-18T09:14:55.077Z,1.6
2023-11-18T09:17:50.684Z,1.1
2023-11-18T09:23:52.710Z,1.5
2023-11-18T09:26:51.286Z,1.3199999999999998
2023-11-18T09:29:50.917Z,1.5
2023-11-18T09:32:48.575Z,2.54
2023-11-18T09:35:45.954Z,1.1
2023-11-18T09:38:42.574Z,1.6600000000000001
2023-11-18T09:41:40.099Z,2.1199999999999997
2023-11-18T09:44:38.637Z,3.1
2023-11-18T09:47:41.278Z,2.0200000000000005
2023-11-18T09:50:44.697Z,2.1
2023-11-18T09:53:47.283Z,2.0200000000000005
2023-11-18T09:56:57.785Z,0.96
2023-11-18T10:00:00.508Z,1.1600000000000001
2023-11-18T10:02:57.983Z,1.92
2023-11-18T10:05:57.451Z,2.32
2023-11-18T10:08:57.987Z,2.2600000000000002
2023-11-18T10:12:01.581Z,2.2800000000000002
2023-11-18T10:18:07.848Z,2.2399999999999998
2023-11-18T10:21:19.157Z,1.22
2023-11-18T10:24:21.338Z,1.3
2023-11-18T10:27:20.232Z,2.04
2023-11-18T10:30:19.966Z,1.18
2023-11-18T10:33:17.345Z,1.06
2023-11-18T10:36:23.070Z,1.1600000000000001
2023-11-18T10:39:25.543Z,1.8400000000000003
2023-11-18T10:42:22.955Z,1.3
2023-11-18T10:45:31.500Z,1.42
2023-11-18T10:48:31.017Z,1.6
2023-11-18T10:51:27.982Z,0.9800000000000001
2023-11-18T10:54:27.154Z,1.42
2023-11-18T10:57:24.703Z,1.5599999999999998
2023-11-18T11:00:34.248Z,2.34
2023-11-18T11:03:35.317Z,1.7600000000000002
2023-11-18T11:06:33.408Z,3.0000000000000004
2023-11-18T11:09:36.941Z,2.54
2023-11-18T11:12:42.431Z,1.6199999999999999
2023-11-18T11:15:55.312Z,1.8199999999999998
2023-11-18T11:18:56.502Z,1.22
2023-11-18T11:22:03.029Z,1.3800000000000001
2023-11-18T11:25:12.674Z,1.8199999999999998
2023-11-18T11:28:23.074Z,2.04
2023-11-18T11:31:30.838Z,2.38
2023-11-18T11:34:32.166Z,1.9600000000000002
2023-11-18T11:37:15.957Z,3.3200000000000003
2023-11-18T11:40:06.334Z,2.7400000000000007
2023-11-18T11:42:48.900Z,2.6799999999999997
2023-11-18T11:45:55.461Z,2.52
2023-11-18T11:49:00.994Z,1.8400000000000003
2023-11-18T11:52:06.548Z,1.7
2023-11-18T11:55:14.061Z,1
2023-11-18T11:58:16.574Z,1.52
2023-11-18T12:01:19.133Z,1.5799999999999998
2023-11-18T12:04:21.752Z,1.8399999999999999
2023-11-18T12:07:21.004Z,3.1800000000000006
2023-11-18T12:10:22.807Z,1.54
2023-11-18T12:13:20.477Z,2.2600000000000002
2023-11-18T12:16:33.933Z,2.24
2023-11-18T12:19:37.478Z,1.98
2023-11-18T12:22:41.941Z,1.3599999999999999
2023-11-18T12:25:50.522Z,2.2800000000000002
2023-11-18T12:28:49.003Z,2.84
2023-11-18T12:31:51.621Z,2.38
2023-11-18T12:34:52.169Z,2.38
2023-11-18T12:38:08.446Z,2.2399999999999998
2023-11-18T12:41:12.272Z,2.74
2023-11-18T12:44:21.762Z,2.2800000000000002
2023-11-18T12:47:29.246Z,3.3
2023-11-18T12:50:29.978Z,1.9600000000000002
2023-11-18T12:53:27.375Z,1.7399999999999998
2023-11-18T12:56:32.912Z,2.32
2023-11-18T12:59:31.473Z,3.8600000000000003
2023-11-18T13:02:29.129Z,1.9
2023-11-18T13:05:30.561Z,1.86
2023-11-18T13:08:28.158Z,3.0199999999999996
2023-11-18T13:11:24.672Z,4.119999999999999
2023-11-18T13:14:26.268Z,3.9799999999999995
2023-11-18T13:17:22.746Z,2.16
2023-11-18T13:20:25.299Z,3.9
2023-11-18T13:23:20.864Z,6.540000000000001
2023-11-18T13:26:20.591Z,4.28
2023-11-18T13:29:17.094Z,5
2023-11-18T13:32:13.541Z,4.340000000000001
2023-11-18T13:35:12.082Z,4.840000000000001
2023-11-18T13:38:10.637Z,2.1199999999999997
2023-11-18T13:41:14.318Z,2.74
2023-11-18T13:44:19.734Z,3.72
2023-11-18T13:47:17.298Z,3.7
2023-11-18T13:50:14.850Z,2.5599999999999996
2023-11-18T13:53:11.464Z,2.92
2023-11-18T13:56:09.937Z,2.5
2023-11-18T13:59:06.539Z,3.3200000000000003
2023-11-18T14:02:03.145Z,5.14
2023-11-18T14:05:00.688Z,3.9200000000000004
2023-11-18T14:08:08.160Z,3.1
2023-11-18T14:11:08.816Z,5.4
2023-11-18T14:14:09.256Z,6.380000000000001
2023-11-18T14:17:07.831Z,4.279999999999999
2023-11-18T14:20:04.353Z,3.8800000000000003
2023-11-18T14:23:04.938Z,5.180000000000001
2023-11-18T14:26:01.434Z,4.06
2023-11-18T14:29:00.125Z,5.82
2023-11-18T14:31:55.599Z,3.38
2023-11-18T14:37:58.136Z,3.1800000000000006
2023-11-18T14:40:57.218Z,3.5799999999999996
2023-11-18T14:43:53.823Z,26.24
2023-11-18T14:46:52.378Z,22.68
2023-11-18T14:49:53.896Z,7.94
2023-11-18T14:52:52.568Z,4.32
2023-11-18T14:55:51.972Z,3.2399999999999998
2023-11-18T14:58:50.639Z,3.94
2023-11-18T15:01:49.715Z,5.2
2023-11-18T15:04:46.679Z,3.6400000000000006
2023-11-18T15:07:44.792Z,4.46
2023-11-18T15:10:42.721Z,3.46
2023-11-18T15:13:40.308Z,4.38
2023-11-18T15:16:38.920Z,3.1399999999999997
2023-11-18T15:19:36.050Z,4.119999999999999
2023-11-18T15:22:32.053Z,3.4200000000000004
2023-11-18T15:25:33.221Z,3.7
2023-11-18T15:28:32.066Z,5.74
2023-11-18T15:31:30.786Z,5.42
2023-11-18T15:34:28.189Z,4.02
2023-11-18T15:37:23.769Z,3.88
2023-11-18T15:40:20.409Z,3.1
2023-11-18T15:43:23.200Z,1.7599999999999998
2023-11-18T15:46:18.416Z,2.7800000000000002
2023-11-18T15:52:20.177Z,6.62
2023-11-18T15:55:17.056Z,2.6
2023-11-18T15:58:14.630Z,2.5799999999999996
2023-11-18T16:01:11.252Z,2.38
2023-11-18T16:04:08.775Z,3.6799999999999997
2023-11-18T16:07:05.315Z,1.6800000000000002
2023-11-18T16:10:00.861Z,1.9599999999999997
2023-11-18T16:12:58.434Z,2.46
2023-11-18T16:15:56.957Z,1.56
2023-11-18T16:18:55.517Z,2.56
2023-11-18T16:21:54.051Z,1.6800000000000002
2023-11-18T16:24:49.608Z,2
2023-11-18T16:27:46.260Z,1.92
2023-11-18T16:30:47.732Z,1.6600000000000001
2023-11-18T16:33:46.701Z,2.2399999999999998
2023-11-18T16:36:48.829Z,3.2
2023-11-18T16:42:42.949Z,4.26
2023-11-18T16:45:42.499Z,2.7199999999999998
2023-11-18T16:48:42.059Z,3.4
2023-11-18T16:51:39.644Z,3.04
2023-11-18T16:54:40.597Z,3.16
2023-11-18T16:57:36.673Z,3.9599999999999995
2023-11-18T17:00:34.430Z,4.779999999999999
2023-11-18T17:03:32.956Z,3.9599999999999995
2023-11-18T17:06:29.368Z,5.2
2023-11-18T17:09:25.898Z,8.139999999999999
2023-11-18T17:12:22.507Z,8.8
2023-11-18T17:15:22.158Z,8.78
2023-11-18T17:18:18.629Z,6.7
2023-11-18T17:21:19.144Z,5.819999999999999
2023-11-18T17:24:18.724Z,4.720000000000001
2023-11-18T17:27:16.216Z,4.239999999999999
2023-11-18T17:30:12.810Z,4.18
2023-11-18T17:33:16.507Z,5.44
2023-11-18T17:36:20.982Z,3.8600000000000003
2023-11-18T17:39:18.447Z,3.5
2023-11-18T17:42:14.019Z,4.34
2023-11-18T17:48:15.225Z,7.4399999999999995
2023-11-18T17:54:22.184Z,6.6
2023-11-18T17:57:18.747Z,15.98
2023-11-18T18:00:21.473Z,17.419999999999998
2023-11-18T18:03:17.972Z,7.220000000000001
2023-11-18T18:06:14.452Z,9.620000000000001
2023-11-18T18:09:10.932Z,8.459999999999999
2023-11-18T18:12:08.540Z,5.959999999999999
2023-11-18T18:15:05.102Z,4.7
2023-11-18T18:18:02.706Z,2.3600000000000003
2023-11-18T18:20:58.311Z,4.14
2023-11-18T18:23:56.750Z,2.5799999999999996
2023-11-18T18:26:53.425Z,3.0199999999999996
2023-11-18T18:29:49.882Z,3.1399999999999997
2023-11-18T18:32:47.556Z,3.54
2023-11-18T18:35:47.989Z,4.0200000000000005
2023-11-18T18:38:43.592Z,4.7
2023-11-18T18:41:42.088Z,2.96
2023-11-18T18:44:39.706Z,4.08
2023-11-18T18:47:38.359Z,3.6799999999999997
2023-11-18T18:50:38.882Z,4.24
2023-11-18T18:53:35.324Z,3.6199999999999997
2023-11-18T18:56:32.906Z,4.42
2023-11-18T18:59:35.484Z,6.3
2023-11-18T19:02:32.155Z,4.499999999999999
2023-11-18T19:05:27.591Z,4.2
2023-11-18T19:08:24.138Z,4.9
2023-11-18T19:14:27.313Z,4.720000000000001
2023-11-18T19:17:24.802Z,4.9799999999999995
2023-11-18T19:20:27.148Z,5.720000000000001
2023-11-18T19:23:22.886Z,6.5
2023-11-18T19:29:24.990Z,6.480000000000001
2023-11-18T19:32:20.548Z,5.64
2023-11-18T19:35:16.592Z,7.5600000000000005
2023-11-18T19:38:12.829Z,5.5600000000000005
2023-11-18T19:41:10.206Z,3.7800000000000002
2023-11-18T19:44:06.766Z,3.9
2023-11-18T19:47:03.302Z,3.8
2023-11-18T19:50:04.938Z,5.08
2023-11-18T19:53:01.472Z,4.5
2023-11-18T19:59:09.610Z,4.6
2023-11-18T20:02:07.105Z,3.5200000000000005
2023-11-18T20:05:05.665Z,4.4399999999999995
2023-11-18T20:08:14.678Z,5.14
2023-11-18T20:11:11.057Z,4.959999999999999
2023-11-18T20:14:08.909Z,5.18
2023-11-18T20:17:06.857Z,3.7600000000000002
2023-11-18T20:20:07.466Z,4.68
2023-11-18T20:23:04.942Z,4.82
2023-11-18T20:26:01.507Z,4.1
2023-11-18T20:28:58.039Z,3.96
2023-11-18T20:31:53.587Z,4.159999999999999
2023-11-18T20:34:51.149Z,4.680000000000001
2023-11-18T20:37:58.381Z,3.94
2023-11-18T20:40:57.143Z,3.78
2023-11-18T20:43:53.802Z,5.0600000000000005
2023-11-18T20:46:51.349Z,5.14
2023-11-18T20:49:50.678Z,6.44
2023-11-18T20:52:49.462Z,5.540000000000001
2023-11-18T20:55:47.986Z,6.9799999999999995
2023-11-18T20:58:48.626Z,8.42
2023-11-18T21:01:48.097Z,11.639999999999999
2023-11-18T21:04:44.821Z,8.24
2023-11-18T21:07:42.190Z,8.099999999999998
2023-11-18T21:10:38.814Z,6.159999999999999
2023-11-18T21:13:41.369Z,5.58
2023-11-18T21:16:38.896Z,5.26
2023-11-18T21:19:40.844Z,5.2
2023-11-18T21:22:35.976Z,4.64
2023-11-18T21:25:35.525Z,5.540000000000001
2023-11-18T21:28:39.077Z,3.9200000000000004
2023-11-18T21:31:34.634Z,4.340000000000001
2023-11-18T21:34:30.145Z,6.040000000000001
2023-11-18T21:37:26.750Z,6.9799999999999995
2023-11-18T21:40:25.318Z,7.4799999999999995
2023-11-18T21:43:27.851Z,9.32
2023-11-18T21:46:25.481Z,7.040000000000001
2023-11-18T21:49:23.953Z,9.180000000000001
2023-11-18T21:52:25.295Z,7.3
2023-11-18T21:55:28.146Z,6.9
2023-11-18T21:58:24.878Z,7.42
2023-11-18T22:01:22.176Z,9
2023-11-18T22:04:20.830Z,7.2
2023-11-18T22:07:19.386Z,6.88
2023-11-18T22:10:17.819Z,5.66
2023-11-18T22:13:13.384Z,4.6
2023-11-18T22:16:10.966Z,4.18
2023-11-18T22:19:10.489Z,3.8600000000000003
2023-11-18T22:22:06.062Z,4.2
2023-11-18T22:25:01.622Z,3.6800000000000006
2023-11-18T22:27:57.243Z,6.3
2023-11-18T22:30:56.722Z,4.16
2023-11-18T22:33:53.268Z,4.24
2023-11-18T22:36:49.015Z,4.52
2023-11-18T22:39:46.435Z,4.3
2023-11-18T22:42:46.035Z,5.9
2023-11-18T22:45:51.854Z,6.4
2023-11-18T22:48:50.099Z,8.459999999999999
2023-11-18T22:51:45.612Z,8.96
2023-11-18T22:54:45.158Z,6.26
2023-11-18T22:57:43.730Z,6.26
2023-11-18T23:00:52.581Z,5.76
2023-11-18T23:03:48.860Z,5.5200000000000005
2023-11-18T23:06:56.330Z,6.92
2023-11-18T23:09:51.912Z,7.08
2023-11-18T23:12:47.464Z,7.42
2023-11-18T23:15:42.979Z,6.880000000000001
2023-11-18T23:18:41.805Z,6.0200000000000005
2023-11-18T23:21:39.134Z,5.82
2023-11-18T23:24:37.720Z,5.4
2023-11-18T23:27:34.213Z,5.279999999999999
2023-11-18T23:30:31.812Z,5.32
2023-11-18T23:33:28.337Z,4.96
2023-11-18T23:36:24.903Z,4.76
2023-11-18T23:39:27.436Z,4.94
2023-11-18T23:42:23.018Z,4.159999999999999
2023-11-18T23:45:19.680Z,3.9
2023-11-18T23:48:17.175Z,4.74
2023-11-18T23:51:13.695Z,4.720000000000001
2023-11-18T23:54:11.262Z,4.12
2023-11-18T23:57:09.785Z,3.7600000000000002
